sensor_id;sensor_type;location;lat;lon;timestamp;P1;P2;P0
49064;PMS5003;34876;51.464;-0.150;2023-01-24T00:01:55;98;92;
49064;PMS5003;34876;51.464;-0.150;2023-01-24T00:04:24;97;90;
49064;PMS5003;34876;51.464;-0.150;2023-01-24T00:06:53;104;102;
49064;PMS5003;34876;51.464;-0.150;2023-01-24T00:09:22;105;96;
49064;PMS5003;34876;51.464;-0.150;2023-01-24T00:11:52;98;95;
49064;PMS5003;34876;51.464;-0.150;2023-01-24T00:14:21;102;92;
49064;PMS5003;34876;51.464;-0.150;2023-01-24T00:16:50;107;100;
49064;PMS5003;34876;51.464;-0.150;2023-01-24T00:19:19;96;93;
49064;PMS5003;34876;51.464;-0.150;2023-01-24T00:21:48;96;90;
49064;PMS5003;34876;51.464;-0.150;2023-01-24T00:24:18;107;94;
49064;PMS5003;34876;51.464;-0.150;2023-01-24T00:26:47;101;98;
49064;PMS5003;34876;51.464;-0.150;2023-01-24T00:29:16;92;87;
49064;PMS5003;34876;51.464;-0.150;2023-01-24T00:31:45;98;92;
49064;PMS5003;34876;51.464;-0.150;2023-01-24T00:34:14;92;87;
49064;PMS5003;34876;51.464;-0.150;2023-01-24T00:36:43;104;94;
49064;PMS5003;34876;51.464;-0.150;2023-01-24T00:39:12;90;87;
49064;PMS5003;34876;51.464;-0.150;2023-01-24T00:41:42;95;91;
49064;PMS5003;34876;51.464;-0.150;2023-01-24T00:44:11;105;97;
49064;PMS5003;34876;51.464;-0.150;2023-01-24T00:46:40;102;91;
49064;PMS5003;34876;51.464;-0.150;2023-01-24T00:49:09;99;94;
49064;PMS5003;34876;51.464;-0.150;2023-01-24T00:51:38;96;89;
49064;PMS5003;34876;51.464;-0.150;2023-01-24T00:54:07;92;86;
49064;PMS5003;34876;51.464;-0.150;2023-01-24T00:56:36;96;90;
49064;PMS5003;34876;51.464;-0.150;2023-01-24T00:59:05;96;90;
49064;PMS5003;34876;51.464;-0.150;2023-01-24T01:03:26;23;21;
49064;PMS5003;34876;51.464;-0.150;2023-01-24T01:05:57;25;22;
49064;PMS5003;34876;51.464;-0.150;2023-01-24T01:08:27;21;19;
49064;PMS5003;34876;51.464;-0.150;2023-01-24T01:10:56;20;18;
49064;PMS5003;34876;51.464;-0.150;2023-01-24T01:13:25;18;18;
49064;PMS5003;34876;51.464;-0.150;2023-01-24T01:16:04;16;15;
49064;PMS5003;34876;51.464;-0.150;2023-01-24T01:18:35;17;16;
49064;PMS5003;34876;51.464;-0.150;2023-01-24T01:21:05;22;21;
49064;PMS5003;34876;51.464;-0.150;2023-01-24T01:23:34;19;18;
49064;PMS5003;34876;51.464;-0.150;2023-01-24T01:26:06;15;15;
49064;PMS5003;34876;51.464;-0.150;2023-01-24T01:28:36;17;16;
49064;PMS5003;34876;51.464;-0.150;2023-01-24T01:31:05;19;18;
49064;PMS5003;34876;51.464;-0.150;2023-01-24T01:33:33;19;18;
49064;PMS5003;34876;51.464;-0.150;2023-01-24T01:36:02;13;13;
49064;PMS5003;34876;51.464;-0.150;2023-01-24T01:38:32;15;15;
49064;PMS5003;34876;51.464;-0.150;2023-01-24T01:41:01;18;17;
49064;PMS5003;34876;51.464;-0.150;2023-01-24T01:43:30;16;13;
49064;PMS5003;34876;51.464;-0.150;2023-01-24T01:45:59;15;15;
49064;PMS5003;34876;51.464;-0.150;2023-01-24T01:48:43;18;17;
49064;PMS5003;34876;51.464;-0.150;2023-01-24T01:51:15;19;18;
49064;PMS5003;34876;51.464;-0.150;2023-01-24T01:53:49;19;17;
49064;PMS5003;34876;51.464;-0.150;2023-01-24T01:56:23;22;21;
49064;PMS5003;34876;51.464;-0.150;2023-01-24T01:58:55;19;18;
49064;PMS5003;34876;51.464;-0.150;2023-01-24T02:01:28;19;19;
49064;PMS5003;34876;51.464;-0.150;2023-01-24T02:04:02;23;23;
49064;PMS5003;34876;51.464;-0.150;2023-01-24T02:06:42;19;19;
49064;PMS5003;34876;51.464;-0.150;2023-01-24T02:09:18;21;17;
49064;PMS5003;34876;51.464;-0.150;2023-01-24T02:11:51;17;16;
49064;PMS5003;34876;51.464;-0.150;2023-01-24T02:14:26;21;18;
49064;PMS5003;34876;51.464;-0.150;2023-01-24T02:16:57;21;19;
49064;PMS5003;34876;51.464;-0.150;2023-01-24T02:19:28;19;17;
49064;PMS5003;34876;51.464;-0.150;2023-01-24T02:22:11;19;17;
49064;PMS5003;34876;51.464;-0.150;2023-01-24T02:24:46;23;19;
49064;PMS5003;34876;51.464;-0.150;2023-01-24T02:27:21;18;18;
49064;PMS5003;34876;51.464;-0.150;2023-01-24T02:29:50;24;22;
49064;PMS5003;34876;51.464;-0.150;2023-01-24T02:32:19;17;16;
49064;PMS5003;34876;51.464;-0.150;2023-01-24T02:34:49;19;18;
49064;PMS5003;34876;51.464;-0.150;2023-01-24T02:37:17;22;20;
49064;PMS5003;34876;51.464;-0.150;2023-01-24T02:39:48;19;18;
49064;PMS5003;34876;51.464;-0.150;2023-01-24T02:42:21;17;16;
49064;PMS5003;34876;51.464;-0.150;2023-01-24T02:44:55;19;19;
49064;PMS5003;34876;51.464;-0.150;2023-01-24T02:47:30;18;15;
49064;PMS5003;34876;51.464;-0.150;2023-01-24T02:50:03;17;15;
49064;PMS5003;34876;51.464;-0.150;2023-01-24T02:52:34;17;16;
49064;PMS5003;34876;51.464;-0.150;2023-01-24T02:55:03;16;16;
49064;PMS5003;34876;51.464;-0.150;2023-01-24T02:57:32;22;21;
49064;PMS5003;34876;51.464;-0.150;2023-01-24T03:00:02;20;20;
49064;PMS5003;34876;51.464;-0.150;2023-01-24T03:02:31;20;19;
49064;PMS5003;34876;51.464;-0.150;2023-01-24T03:05:01;18;17;
49064;PMS5003;34876;51.464;-0.150;2023-01-24T03:07:30;17;17;
49064;PMS5003;34876;51.464;-0.150;2023-01-24T03:09:59;16;15;
49064;PMS5003;34876;51.464;-0.150;2023-01-24T03:12:28;17;17;
49064;PMS5003;34876;51.464;-0.150;2023-01-24T03:14:56;29;23;
49064;PMS5003;34876;51.464;-0.150;2023-01-24T03:17:25;20;18;
49064;PMS5003;34876;51.464;-0.150;2023-01-24T03:19:54;21;20;
49064;PMS5003;34876;51.464;-0.150;2023-01-24T03:22:23;17;17;
49064;PMS5003;34876;51.464;-0.150;2023-01-24T03:24:52;18;17;
49064;PMS5003;34876;51.464;-0.150;2023-01-24T03:27:20;19;16;
49064;PMS5003;34876;51.464;-0.150;2023-01-24T03:29:49;19;16;
49064;PMS5003;34876;51.464;-0.150;2023-01-24T03:32:18;18;16;
49064;PMS5003;34876;51.464;-0.150;2023-01-24T03:34:47;16;15;
49064;PMS5003;34876;51.464;-0.150;2023-01-24T03:37:16;16;16;
49064;PMS5003;34876;51.464;-0.150;2023-01-24T03:39:46;20;18;
49064;PMS5003;34876;51.464;-0.150;2023-01-24T03:42:15;21;20;
49064;PMS5003;34876;51.464;-0.150;2023-01-24T03:44:44;17;16;
49064;PMS5003;34876;51.464;-0.150;2023-01-24T03:47:13;19;18;
49064;PMS5003;34876;51.464;-0.150;2023-01-24T03:49:42;17;14;
49064;PMS5003;34876;51.464;-0.150;2023-01-24T03:52:11;17;14;
49064;PMS5003;34876;51.464;-0.150;2023-01-24T03:54:40;18;15;
49064;PMS5003;34876;51.464;-0.150;2023-01-24T03:57:09;18;17;
49064;PMS5003;34876;51.464;-0.150;2023-01-24T03:59:38;23;21;
49064;PMS5003;34876;51.464;-0.150;2023-01-24T04:02:07;15;14;
49064;PMS5003;34876;51.464;-0.150;2023-01-24T04:04:35;16;16;
49064;PMS5003;34876;51.464;-0.150;2023-01-24T04:07:04;18;18;
49064;PMS5003;34876;51.464;-0.150;2023-01-24T04:09:33;20;17;
49064;PMS5003;34876;51.464;-0.150;2023-01-24T04:12:02;13;13;
49064;PMS5003;34876;51.464;-0.150;2023-01-24T04:14:32;13;13;
49064;PMS5003;34876;51.464;-0.150;2023-01-24T04:17:00;15;15;
49064;PMS5003;34876;51.464;-0.150;2023-01-24T04:19:30;15;15;
49064;PMS5003;34876;51.464;-0.150;2023-01-24T04:21:59;15;14;
49064;PMS5003;34876;51.464;-0.150;2023-01-24T04:24:27;17;17;
49064;PMS5003;34876;51.464;-0.150;2023-01-24T04:26:56;19;16;
49064;PMS5003;34876;51.464;-0.150;2023-01-24T04:29:25;17;15;
49064;PMS5003;34876;51.464;-0.150;2023-01-24T04:31:54;17;17;
49064;PMS5003;34876;51.464;-0.150;2023-01-24T04:34:23;19;19;
49064;PMS5003;34876;51.464;-0.150;2023-01-24T04:36:52;24;22;
49064;PMS5003;34876;51.464;-0.150;2023-01-24T04:39:21;24;22;
49064;PMS5003;34876;51.464;-0.150;2023-01-24T04:41:50;28;20;
49064;PMS5003;34876;51.464;-0.150;2023-01-24T04:44:19;19;18;
49064;PMS5003;34876;51.464;-0.150;2023-01-24T04:46:48;18;16;
49064;PMS5003;34876;51.464;-0.150;2023-01-24T04:49:17;21;19;
49064;PMS5003;34876;51.464;-0.150;2023-01-24T04:51:46;18;17;
49064;PMS5003;34876;51.464;-0.150;2023-01-24T04:54:16;20;19;
49064;PMS5003;34876;51.464;-0.150;2023-01-24T04:56:45;21;19;
49064;PMS5003;34876;51.464;-0.150;2023-01-24T04:59:14;17;17;
49064;PMS5003;34876;51.464;-0.150;2023-01-24T05:01:43;17;16;
49064;PMS5003;34876;51.464;-0.150;2023-01-24T05:04:12;17;15;
49064;PMS5003;34876;51.464;-0.150;2023-01-24T05:06:41;20;18;
49064;PMS5003;34876;51.464;-0.150;2023-01-24T05:09:10;20;17;
49064;PMS5003;34876;51.464;-0.150;2023-01-24T05:11:39;18;17;
49064;PMS5003;34876;51.464;-0.150;2023-01-24T05:14:08;20;18;
49064;PMS5003;34876;51.464;-0.150;2023-01-24T05:16:37;23;22;
49064;PMS5003;34876;51.464;-0.150;2023-01-24T05:19:06;20;17;
49064;PMS5003;34876;51.464;-0.150;2023-01-24T05:21:35;14;14;
49064;PMS5003;34876;51.464;-0.150;2023-01-24T05:24:05;20;14;
49064;PMS5003;34876;51.464;-0.150;2023-01-24T05:26:34;15;13;
49064;PMS5003;34876;51.464;-0.150;2023-01-24T05:29:03;18;15;
49064;PMS5003;34876;51.464;-0.150;2023-01-24T05:31:32;16;15;
49064;PMS5003;34876;51.464;-0.150;2023-01-24T05:34:01;19;15;
49064;PMS5003;34876;51.464;-0.150;2023-01-24T05:36:30;16;15;
49064;PMS5003;34876;51.464;-0.150;2023-01-24T05:38:59;16;16;
49064;PMS5003;34876;51.464;-0.150;2023-01-24T05:41:28;14;13;
49064;PMS5003;34876;51.464;-0.150;2023-01-24T05:43:57;18;18;
49064;PMS5003;34876;51.464;-0.150;2023-01-24T05:46:26;16;16;
49064;PMS5003;34876;51.464;-0.150;2023-01-24T05:48:55;20;17;
49064;PMS5003;34876;51.464;-0.150;2023-01-24T05:51:24;14;14;
49064;PMS5003;34876;51.464;-0.150;2023-01-24T05:53:53;16;15;
49064;PMS5003;34876;51.464;-0.150;2023-01-24T05:56:22;19;17;
49064;PMS5003;34876;51.464;-0.150;2023-01-24T05:58:51;19;16;
49064;PMS5003;34876;51.464;-0.150;2023-01-24T06:01:20;14;14;
49064;PMS5003;34876;51.464;-0.150;2023-01-24T06:03:51;19;15;
49064;PMS5003;34876;51.464;-0.150;2023-01-24T06:06:21;20;20;
49064;PMS5003;34876;51.464;-0.150;2023-01-24T06:08:51;15;15;
49064;PMS5003;34876;51.464;-0.150;2023-01-24T06:11:20;17;14;
49064;PMS5003;34876;51.464;-0.150;2023-01-24T06:13:52;17;15;
49064;PMS5003;34876;51.464;-0.150;2023-01-24T06:16:22;16;16;
49064;PMS5003;34876;51.464;-0.150;2023-01-24T06:18:53;15;13;
49064;PMS5003;34876;51.464;-0.150;2023-01-24T06:21:29;13;13;
49064;PMS5003;34876;51.464;-0.150;2023-01-24T06:24:09;13;13;
49064;PMS5003;34876;51.464;-0.150;2023-01-24T06:26:45;13;12;
49064;PMS5003;34876;51.464;-0.150;2023-01-24T06:29:15;18;15;
49064;PMS5003;34876;51.464;-0.150;2023-01-24T06:31:47;13;12;
49064;PMS5003;34876;51.464;-0.150;2023-01-24T06:34:30;16;16;
49064;PMS5003;34876;51.464;-0.150;2023-01-24T06:37:12;13;12;
49064;PMS5003;34876;51.464;-0.150;2023-01-24T06:39:48;14;13;
49064;PMS5003;34876;51.464;-0.150;2023-01-24T06:42:19;15;14;
49064;PMS5003;34876;51.464;-0.150;2023-01-24T06:44:50;15;14;
49064;PMS5003;34876;51.464;-0.150;2023-01-24T06:47:19;16;16;
49064;PMS5003;34876;51.464;-0.150;2023-01-24T06:49:47;15;14;
49064;PMS5003;34876;51.464;-0.150;2023-01-24T06:52:16;15;14;
49064;PMS5003;34876;51.464;-0.150;2023-01-24T06:54:45;12;12;
49064;PMS5003;34876;51.464;-0.150;2023-01-24T06:57:14;12;12;
49064;PMS5003;34876;51.464;-0.150;2023-01-24T06:59:43;11;11;
49064;PMS5003;34876;51.464;-0.150;2023-01-24T07:02:12;14;14;
49064;PMS5003;34876;51.464;-0.150;2023-01-24T07:04:40;14;14;
49064;PMS5003;34876;51.464;-0.150;2023-01-24T07:07:09;13;13;
49064;PMS5003;34876;51.464;-0.150;2023-01-24T07:09:38;15;15;
49064;PMS5003;34876;51.464;-0.150;2023-01-24T07:12:07;14;12;
49064;PMS5003;34876;51.464;-0.150;2023-01-24T07:14:36;17;14;
49064;PMS5003;34876;51.464;-0.150;2023-01-24T07:17:05;15;14;
49064;PMS5003;34876;51.464;-0.150;2023-01-24T07:19:34;16;14;
49064;PMS5003;34876;51.464;-0.150;2023-01-24T07:22:04;13;13;
49064;PMS5003;34876;51.464;-0.150;2023-01-24T07:24:37;18;16;
49064;PMS5003;34876;51.464;-0.150;2023-01-24T07:27:07;11;10;
49064;PMS5003;34876;51.464;-0.150;2023-01-24T07:29:36;14;13;
49064;PMS5003;34876;51.464;-0.150;2023-01-24T07:32:05;13;13;
49064;PMS5003;34876;51.464;-0.150;2023-01-24T07:34:34;12;12;
49064;PMS5003;34876;51.464;-0.150;2023-01-24T07:37:04;14;13;
49064;PMS5003;34876;51.464;-0.150;2023-01-24T07:39:34;15;15;
49064;PMS5003;34876;51.464;-0.150;2023-01-24T07:42:03;13;13;
49064;PMS5003;34876;51.464;-0.150;2023-01-24T07:44:32;11;11;
49064;PMS5003;34876;51.464;-0.150;2023-01-24T07:47:01;12;12;
49064;PMS5003;34876;51.464;-0.150;2023-01-24T07:49:29;12;12;
49064;PMS5003;34876;51.464;-0.150;2023-01-24T07:51:58;11;9;
49064;PMS5003;34876;51.464;-0.150;2023-01-24T07:54:27;17;12;
49064;PMS5003;34876;51.464;-0.150;2023-01-24T07:56:56;16;15;
49064;PMS5003;34876;51.464;-0.150;2023-01-24T07:59:25;15;13;
49064;PMS5003;34876;51.464;-0.150;2023-01-24T08:01:54;16;14;
49064;PMS5003;34876;51.464;-0.150;2023-01-24T08:04:23;14;14;
49064;PMS5003;34876;51.464;-0.150;2023-01-24T08:06:52;14;14;
49064;PMS5003;34876;51.464;-0.150;2023-01-24T08:09:21;11;11;
49064;PMS5003;34876;51.464;-0.150;2023-01-24T08:11:50;16;16;
49064;PMS5003;34876;51.464;-0.150;2023-01-24T08:14:21;15;14;
49064;PMS5003;34876;51.464;-0.150;2023-01-24T08:16:50;14;14;
49064;PMS5003;34876;51.464;-0.150;2023-01-24T08:19:19;18;16;
49064;PMS5003;34876;51.464;-0.150;2023-01-24T08:21:48;16;13;
49064;PMS5003;34876;51.464;-0.150;2023-01-24T08:24:18;14;12;
49064;PMS5003;34876;51.464;-0.150;2023-01-24T08:26:47;18;16;
49064;PMS5003;34876;51.464;-0.150;2023-01-24T08:29:15;12;12;
49064;PMS5003;34876;51.464;-0.150;2023-01-24T08:31:45;14;10;
49064;PMS5003;34876;51.464;-0.150;2023-01-24T08:34:14;13;12;
49064;PMS5003;34876;51.464;-0.150;2023-01-24T08:36:43;17;14;
49064;PMS5003;34876;51.464;-0.150;2023-01-24T08:39:13;16;14;
49064;PMS5003;34876;51.464;-0.150;2023-01-24T08:41:42;13;11;
49064;PMS5003;34876;51.464;-0.150;2023-01-24T08:44:11;14;12;
49064;PMS5003;34876;51.464;-0.150;2023-01-24T08:46:41;20;20;
49064;PMS5003;34876;51.464;-0.150;2023-01-24T08:49:11;20;16;
49064;PMS5003;34876;51.464;-0.150;2023-01-24T08:51:40;14;12;
49064;PMS5003;34876;51.464;-0.150;2023-01-24T08:54:10;19;16;
49064;PMS5003;34876;51.464;-0.150;2023-01-24T08:56:39;15;15;
49064;PMS5003;34876;51.464;-0.150;2023-01-24T08:59:09;15;15;
49064;PMS5003;34876;51.464;-0.150;2023-01-24T09:01:38;13;13;
49064;PMS5003;34876;51.464;-0.150;2023-01-24T09:04:07;13;13;
49064;PMS5003;34876;51.464;-0.150;2023-01-24T09:06:36;13;12;
49064;PMS5003;34876;51.464;-0.150;2023-01-24T09:09:06;12;12;
49064;PMS5003;34876;51.464;-0.150;2023-01-24T09:11:35;17;13;
49064;PMS5003;34876;51.464;-0.150;2023-01-24T09:14:04;15;13;
49064;PMS5003;34876;51.464;-0.150;2023-01-24T09:16:33;15;14;
49064;PMS5003;34876;51.464;-0.150;2023-01-24T09:19:02;13;13;
49064;PMS5003;34876;51.464;-0.150;2023-01-24T09:21:31;20;18;
49064;PMS5003;34876;51.464;-0.150;2023-01-24T09:24:00;18;16;
49064;PMS5003;34876;51.464;-0.150;2023-01-24T09:26:30;14;13;
49064;PMS5003;34876;51.464;-0.150;2023-01-24T09:28:59;16;13;
49064;PMS5003;34876;51.464;-0.150;2023-01-24T09:31:28;13;13;
49064;PMS5003;34876;51.464;-0.150;2023-01-24T09:33:57;13;13;
49064;PMS5003;34876;51.464;-0.150;2023-01-24T09:36:25;15;15;
49064;PMS5003;34876;51.464;-0.150;2023-01-24T09:38:55;15;13;
49064;PMS5003;34876;51.464;-0.150;2023-01-24T09:41:26;16;14;
49064;PMS5003;34876;51.464;-0.150;2023-01-24T09:44:04;17;14;
49064;PMS5003;34876;51.464;-0.150;2023-01-24T09:46:44;13;12;
49064;PMS5003;34876;51.464;-0.150;2023-01-24T09:49:17;18;17;
49064;PMS5003;34876;51.464;-0.150;2023-01-24T09:51:59;15;15;
49064;PMS5003;34876;51.464;-0.150;2023-01-24T09:54:31;17;17;
49064;PMS5003;34876;51.464;-0.150;2023-01-24T09:57:07;13;13;
49064;PMS5003;34876;51.464;-0.150;2023-01-24T09:59:41;16;13;
49064;PMS5003;34876;51.464;-0.150;2023-01-24T10:02:14;14;14;
49064;PMS5003;34876;51.464;-0.150;2023-01-24T10:04:45;13;12;
49064;PMS5003;34876;51.464;-0.150;2023-01-24T10:07:25;14;14;
49064;PMS5003;34876;51.464;-0.150;2023-01-24T10:10:16;18;16;
49064;PMS5003;34876;51.464;-0.150;2023-01-24T10:12:59;12;11;
49064;PMS5003;34876;51.464;-0.150;2023-01-24T10:15:38;15;14;
49064;PMS5003;34876;51.464;-0.150;2023-01-24T10:18:18;18;14;
49064;PMS5003;34876;51.464;-0.150;2023-01-24T10:21:17;14;14;
49064;PMS5003;34876;51.464;-0.150;2023-01-24T10:23:56;14;14;
49064;PMS5003;34876;51.464;-0.150;2023-01-24T10:26:30;15;14;
49064;PMS5003;34876;51.464;-0.150;2023-01-24T10:29:06;11;11;
49064;PMS5003;34876;51.464;-0.150;2023-01-24T10:31:42;14;11;
49064;PMS5003;34876;51.464;-0.150;2023-01-24T10:34:15;13;13;
49064;PMS5003;34876;51.464;-0.150;2023-01-24T10:36:50;18;16;
49064;PMS5003;34876;51.464;-0.150;2023-01-24T10:39:22;13;12;
49064;PMS5003;34876;51.464;-0.150;2023-01-24T10:41:50;16;15;
49064;PMS5003;34876;51.464;-0.150;2023-01-24T10:44:22;16;16;
49064;PMS5003;34876;51.464;-0.150;2023-01-24T10:46:59;17;16;
49064;PMS5003;34876;51.464;-0.150;2023-01-24T10:49:41;23;21;
49064;PMS5003;34876;51.464;-0.150;2023-01-24T10:52:16;18;17;
49064;PMS5003;34876;51.464;-0.150;2023-01-24T10:54:47;13;12;
49064;PMS5003;34876;51.464;-0.150;2023-01-24T10:57:19;14;13;
49064;PMS5003;34876;51.464;-0.150;2023-01-24T11:00:16;15;12;
49064;PMS5003;34876;51.464;-0.150;2023-01-24T11:02:52;12;12;
49064;PMS5003;34876;51.464;-0.150;2023-01-24T11:05:23;14;13;
49064;PMS5003;34876;51.464;-0.150;2023-01-24T11:07:53;13;13;
49064;PMS5003;34876;51.464;-0.150;2023-01-24T11:10:28;15;13;
49064;PMS5003;34876;51.464;-0.150;2023-01-24T11:13:04;16;14;
49064;PMS5003;34876;51.464;-0.150;2023-01-24T11:15:53;15;15;
49064;PMS5003;34876;51.464;-0.150;2023-01-24T11:18:27;15;15;
49064;PMS5003;34876;51.464;-0.150;2023-01-24T11:21:05;16;16;
49064;PMS5003;34876;51.464;-0.150;2023-01-24T11:23:36;14;13;
49064;PMS5003;34876;51.464;-0.150;2023-01-24T11:26:06;;15;
49064;PMS5003;34876;51.464;-0.150;2023-01-24T11:28:57;12;12;
49064;PMS5003;34876;51.464;-0.150;2023-01-24T11:31:29;24;24;
49064;PMS5003;34876;51.464;-0.150;2023-01-24T11:34:13;15;15;
49064;PMS5003;34876;51.464;-0.150;2023-01-24T11:36:57;17;17;
49064;PMS5003;34876;51.464;-0.150;2023-01-24T11:39:35;16;16;
49064;PMS5003;34876;51.464;-0.150;2023-01-24T11:42:13;18;17;
49064;PMS5003;34876;51.464;-0.150;2023-01-24T11:44:53;15;15;
49064;PMS5003;34876;51.464;-0.150;2023-01-24T11:47:33;16;15;
49064;PMS5003;34876;51.464;-0.150;2023-01-24T11:50:10;13;13;
49064;PMS5003;34876;51.464;-0.150;2023-01-24T11:52:53;14;14;
49064;PMS5003;34876;51.464;-0.150;2023-01-24T11:55:38;18;16;
49064;PMS5003;34876;51.464;-0.150;2023-01-24T11:58:20;14;14;
49064;PMS5003;34876;51.464;-0.150;2023-01-24T12:01:03;15;13;
49064;PMS5003;34876;51.464;-0.150;2023-01-24T12:03:41;17;16;
49064;PMS5003;34876;51.464;-0.150;2023-01-24T12:06:26;19;15;
49064;PMS5003;34876;51.464;-0.150;2023-01-24T12:09:04;17;15;
49064;PMS5003;34876;51.464;-0.150;2023-01-24T12:11:42;15;14;
49064;PMS5003;34876;51.464;-0.150;2023-01-24T12:14:22;13;12;
49064;PMS5003;34876;51.464;-0.150;2023-01-24T12:17:06;14;14;
49064;PMS5003;34876;51.464;-0.150;2023-01-24T12:19:49;15;15;
49064;PMS5003;34876;51.464;-0.150;2023-01-24T12:22:29;17;15;
49064;PMS5003;34876;51.464;-0.150;2023-01-24T12:25:02;15;14;
49064;PMS5003;34876;51.464;-0.150;2023-01-24T12:27:34;11;11;
49064;PMS5003;34876;51.464;-0.150;2023-01-24T12:30:06;16;16;
49064;PMS5003;34876;51.464;-0.150;2023-01-24T12:30:20;17;16;
49064;PMS5003;34876;51.464;-0.150;2023-01-24T12:32:57;12;12;
49064;PMS5003;34876;51.464;-0.150;2023-01-24T12:35:32;16;16;
49064;PMS5003;34876;51.464;-0.150;2023-01-24T12:38:09;22;21;
49064;PMS5003;34876;51.464;-0.150;2023-01-24T12:40:46;18;17;
49064;PMS5003;34876;51.464;-0.150;2023-01-24T12:43:22;17;14;
49064;PMS5003;34876;51.464;-0.150;2023-01-24T12:45:59;20;20;
49064;PMS5003;34876;51.464;-0.150;2023-01-24T12:48:37;17;17;
49064;PMS5003;34876;51.464;-0.150;2023-01-24T12:51:13;14;13;
49064;PMS5003;34876;51.464;-0.150;2023-01-24T12:53:54;20;16;
49064;PMS5003;34876;51.464;-0.150;2023-01-24T12:56:30;18;16;
49064;PMS5003;34876;51.464;-0.150;2023-01-24T12:59:06;22;22;
49064;PMS5003;34876;51.464;-0.150;2023-01-24T13:01:44;17;15;
49064;PMS5003;34876;51.464;-0.150;2023-01-24T13:04:35;14;14;
49064;PMS5003;34876;51.464;-0.150;2023-01-24T13:07:20;15;13;
49064;PMS5003;34876;51.464;-0.150;2023-01-24T13:09:59;17;16;
49064;PMS5003;34876;51.464;-0.150;2023-01-24T13:12:38;15;13;
49064;PMS5003;34876;51.464;-0.150;2023-01-24T13:15:14;18;15;
49064;PMS5003;34876;51.464;-0.150;2023-01-24T13:17:53;16;16;
49064;PMS5003;34876;51.464;-0.150;2023-01-24T13:20:35;18;17;
49064;PMS5003;34876;51.464;-0.150;2023-01-24T13:23:36;13;13;
49064;PMS5003;34876;51.464;-0.150;2023-01-24T13:26:19;15;14;
49064;PMS5003;34876;51.464;-0.150;2023-01-24T13:28:57;14;13;
49064;PMS5003;34876;51.464;-0.150;2023-01-24T13:31:45;16;15;
49064;PMS5003;34876;51.464;-0.150;2023-01-24T13:34:21;14;14;
49064;PMS5003;34876;51.464;-0.150;2023-01-24T13:36:55;19;16;
49064;PMS5003;34876;51.464;-0.150;2023-01-24T13:39:28;15;15;
49064;PMS5003;34876;51.464;-0.150;2023-01-24T13:42:00;14;12;
49064;PMS5003;34876;51.464;-0.150;2023-01-24T13:44:33;15;14;
49064;PMS5003;34876;51.464;-0.150;2023-01-24T13:47:21;13;12;
49064;PMS5003;34876;51.464;-0.150;2023-01-24T13:50:11;16;15;
49064;PMS5003;34876;51.464;-0.150;2023-01-24T13:52:45;15;15;
49064;PMS5003;34876;51.464;-0.150;2023-01-24T13:56:20;16;15;
49064;PMS5003;34876;51.464;-0.150;2023-01-24T13:58:49;16;14;
49064;PMS5003;34876;51.464;-0.150;2023-01-24T14:01:20;17;16;
49064;PMS5003;34876;51.464;-0.150;2023-01-24T14:03:52;14;14;
49064;PMS5003;34876;51.464;-0.150;2023-01-24T14:06:23;14;14;
49064;PMS5003;34876;51.464;-0.150;2023-01-24T14:09:00;18;18;
49064;PMS5003;34876;51.464;-0.150;2023-01-24T14:11:52;16;16;
49064;PMS5003;34876;51.464;-0.150;2023-01-24T14:14:28;17;16;
49064;PMS5003;34876;51.464;-0.150;2023-01-24T14:17:27;16;16;
49064;PMS5003;34876;51.464;-0.150;2023-01-24T14:20:44;22;20;
49064;PMS5003;34876;51.464;-0.150;2023-01-24T14:23:17;14;14;
49064;PMS5003;34876;51.464;-0.150;2023-01-24T14:25:49;16;16;
49064;PMS5003;34876;51.464;-0.150;2023-01-24T14:28:23;15;15;
49064;PMS5003;34876;51.464;-0.150;2023-01-24T14:31:00;18;17;
49064;PMS5003;34876;51.464;-0.150;2023-01-24T14:33:34;14;14;
49064;PMS5003;34876;51.464;-0.150;2023-01-24T14:36:13;15;15;
49064;PMS5003;34876;51.464;-0.150;2023-01-24T14:39:09;15;14;
49064;PMS5003;34876;51.464;-0.150;2023-01-24T14:41:39;14;14;
49064;PMS5003;34876;51.464;-0.150;2023-01-24T14:44:17;16;16;
49064;PMS5003;34876;51.464;-0.150;2023-01-24T14:46:51;17;16;
49064;PMS5003;34876;51.464;-0.150;2023-01-24T14:49:25;15;15;
49064;PMS5003;34876;51.464;-0.150;2023-01-24T14:51:55;20;17;
49064;PMS5003;34876;51.464;-0.150;2023-01-24T14:54:24;20;20;
49064;PMS5003;34876;51.464;-0.150;2023-01-24T14:56:53;16;15;
49064;PMS5003;34876;51.464;-0.150;2023-01-24T14:59:22;19;18;
49064;PMS5003;34876;51.464;-0.150;2023-01-24T15:01:51;20;19;
49064;PMS5003;34876;51.464;-0.150;2023-01-24T15:04:21;16;16;
49064;PMS5003;34876;51.464;-0.150;2023-01-24T15:07:10;12;12;
49064;PMS5003;34876;51.464;-0.150;2023-01-24T15:09:42;16;16;
49064;PMS5003;34876;51.464;-0.150;2023-01-24T15:12:13;15;15;
49064;PMS5003;34876;51.464;-0.150;2023-01-24T15:14:51;12;12;
49064;PMS5003;34876;51.464;-0.150;2023-01-24T15:17:22;14;13;
49064;PMS5003;34876;51.464;-0.150;2023-01-24T15:19:54;16;15;
49064;PMS5003;34876;51.464;-0.150;2023-01-24T15:22:26;20;20;
49064;PMS5003;34876;51.464;-0.150;2023-01-24T15:24:56;19;18;
49064;PMS5003;34876;51.464;-0.150;2023-01-24T15:27:33;15;15;
49064;PMS5003;34876;51.464;-0.150;2023-01-24T15:30:13;20;18;
49064;PMS5003;34876;51.464;-0.150;2023-01-24T15:32:45;15;14;
49064;PMS5003;34876;51.464;-0.150;2023-01-24T15:35:47;17;17;
49064;PMS5003;34876;51.464;-0.150;2023-01-24T15:38:19;13;13;
49064;PMS5003;34876;51.464;-0.150;2023-01-24T15:40:53;20;17;
49064;PMS5003;34876;51.464;-0.150;2023-01-24T15:43:41;16;16;
49064;PMS5003;34876;51.464;-0.150;2023-01-24T15:46:24;13;12;
49064;PMS5003;34876;51.464;-0.150;2023-01-24T15:48:56;21;21;
49064;PMS5003;34876;51.464;-0.150;2023-01-24T15:51:28;20;18;
49064;PMS5003;34876;51.464;-0.150;2023-01-24T15:54:00;15;15;
49064;PMS5003;34876;51.464;-0.150;2023-01-24T15:56:29;15;15;
49064;PMS5003;34876;51.464;-0.150;2023-01-24T15:59:00;20;18;
49064;PMS5003;34876;51.464;-0.150;2023-01-24T16:01:29;16;16;
49064;PMS5003;34876;51.464;-0.150;2023-01-24T16:04:01;23;22;
49064;PMS5003;34876;51.464;-0.150;2023-01-24T16:06:40;24;24;
49064;PMS5003;34876;51.464;-0.150;2023-01-24T16:09:10;15;14;
49064;PMS5003;34876;51.464;-0.150;2023-01-24T16:11:39;16;16;
49064;PMS5003;34876;51.464;-0.150;2023-01-24T16:14:11;15;13;
49064;PMS5003;34876;51.464;-0.150;2023-01-24T16:16:43;17;16;
49064;PMS5003;34876;51.464;-0.150;2023-01-24T16:19:13;13;13;
49064;PMS5003;34876;51.464;-0.150;2023-01-24T16:21:44;22;20;
49064;PMS5003;34876;51.464;-0.150;2023-01-24T16:24:14;13;13;
49064;PMS5003;34876;51.464;-0.150;2023-01-24T16:26:43;24;22;
49064;PMS5003;34876;51.464;-0.150;2023-01-24T16:29:15;14;14;
49064;PMS5003;34876;51.464;-0.150;2023-01-24T16:31:46;16;15;
49064;PMS5003;34876;51.464;-0.150;2023-01-24T16:34:15;13;12;
49064;PMS5003;34876;51.464;-0.150;2023-01-24T16:36:44;20;18;
49064;PMS5003;34876;51.464;-0.150;2023-01-24T16:39:15;19;18;